sensor_id;sensor_type;location;lat;lon;timestamp;pressure;altitude;pressure_sealevel;temperature;humidity
50093;BME280;35974;47.752;10.290;2023-03-22T00:01:15;93724.91;;;7.47;100.00
50093;BME280;35974;47.752;10.290;2023-03-22T00:03:42;93718.22;;;7.59;100.00
50093;BME280;35974;47.752;10.290;2023-03-22T00:06:09;93711.75;;;7.55;100.00
50093;BME280;35974;47.752;10.290;2023-03-22T00:08:35;93694.81;;;7.38;100.00
50093;BME280;35974;47.752;10.290;2023-03-22T00:11:02;93683.63;;;7.44;100.00
50093;BME280;35974;47.752;10.290;2023-03-22T00:13:29;93699.38;;;7.57;99.42
50093;BME280;35974;47.752;10.290;2023-03-22T00:15:55;93683.75;;;7.57;97.98
50093;BME280;35974;47.752;10.290;2023-03-22T00:18:25;93688.97;;;7.57;97.27
50093;BME280;35974;47.752;10.290;2023-03-22T00:20:53;93670.47;;;7.52;97.06
50093;BME280;35974;47.752;10.290;2023-03-22T00:23:21;93686.63;;;7.69;95.26
50093;BME280;35974;47.752;10.290;2023-03-22T00:25:48;93688.66;;;7.74;95.27
50093;BME280;35974;47.752;10.290;2023-03-22T00:28:16;93696.34;;;7.82;94.60
50093;BME280;35974;47.752;10.290;2023-03-22T00:30:50;93673.00;;;7.67;93.46
50093;BME280;35974;47.752;10.290;2023-03-22T00:33:16;93659.78;;;7.68;92.60
50093;BME280;35974;47.752;10.290;2023-03-22T00:36:14;93669.72;;;7.58;91.77
50093;BME280;35974;47.752;10.290;2023-03-22T00:38:39;93616.63;;;7.24;91.00
50093;BME280;35974;47.752;10.290;2023-03-22T00:41:12;93658.56;;;7.64;90.42
50093;BME280;35974;47.752;10.290;2023-03-22T00:43:40;93685.06;;;7.75;90.56
50093;BME280;35974;47.752;10.290;2023-03-22T00:46:07;93677.00;;;7.69;90.63
50093;BME280;35974;47.752;10.290;2023-03-22T00:48:34;93687.28;;;7.78;90.78
50093;BME280;35974;47.752;10.290;2023-03-22T00:51:01;93668.38;;;7.62;90.50
50093;BME280;35974;47.752;10.290;2023-03-22T00:53:27;93662.28;;;7.55;91.76
50093;BME280;35974;47.752;10.290;2023-03-22T00:56:04;93657.09;;;7.55;92.03
50093;BME280;35974;47.752;10.290;2023-03-22T00:58:31;93651.66;;;7.50;90.94
50093;BME280;35974;47.752;10.290;2023-03-22T01:00:58;93667.84;;;7.74;89.65
50093;BME280;35974;47.752;10.290;2023-03-22T01:03:24;93646.81;;;7.47;89.18
50093;BME280;35974;47.752;10.290;2023-03-22T01:05:52;93671.53;;;7.58;89.67
50093;BME280;35974;47.752;10.290;2023-03-22T01:08:22;93647.19;;;7.44;90.71
50093;BME280;35974;47.752;10.290;2023-03-22T01:10:52;93629.41;;;7.19;91.00
50093;BME280;35974;47.752;10.290;2023-03-22T01:13:18;93649.84;;;7.22;91.80
50093;BME280;35974;47.752;10.290;2023-03-22T01:15:44;93638.22;;;7.18;91.72
50093;BME280;35974;47.752;10.290;2023-03-22T01:18:13;93640.94;;;7.10;93.32
50093;BME280;35974;47.752;10.290;2023-03-22T01:20:39;93650.63;;;7.23;93.22
50093;BME280;35974;47.752;10.290;2023-03-22T01:23:06;93634.41;;;6.92;94.70
50093;BME280;35974;47.752;10.290;2023-03-22T01:25:32;93659.59;;;6.92;99.87
50093;BME280;35974;47.752;10.290;2023-03-22T01:27:59;93634.16;;;6.66;100.00
50093;BME280;35974;47.752;10.290;2023-03-22T01:30:29;93643.81;;;6.72;100.00
50093;BME280;35974;47.752;10.290;2023-03-22T01:32:56;93659.09;;;6.82;100.00
50093;BME280;35974;47.752;10.290;2023-03-22T01:35:22;93648.03;;;6.94;100.00
50093;BME280;35974;47.752;10.290;2023-03-22T01:37:49;93632.19;;;6.68;100.00
50093;BME280;35974;47.752;10.290;2023-03-22T01:40:15;93649.00;;;6.72;100.00
50093;BME280;35974;47.752;10.290;2023-03-22T01:42:42;93642.69;;;6.59;100.00
50093;BME280;35974;47.752;10.290;2023-03-22T01:47:40;93650.88;;;6.56;100.00
50093;BME280;35974;47.752;10.290;2023-03-22T01:50:08;93643.81;;;6.50;100.00
50093;BME280;35974;47.752;10.290;2023-03-22T01:52:35;93660.75;;;6.46;100.00
50093;BME280;35974;47.752;10.290;2023-03-22T01:55:03;93646.63;;;6.34;100.00
50093;BME280;35974;47.752;10.290;2023-03-22T01:57:32;93638.94;;;6.26;100.00
50093;BME280;35974;47.752;10.290;2023-03-22T02:00:09;93640.19;;;6.30;100.00
50093;BME280;35974;47.752;10.290;2023-03-22T02:02:42;93632.50;;;6.21;100.00
50093;BME280;35974;47.752;10.290;2023-03-22T02:05:09;93630.25;;;6.18;100.00
50093;BME280;35974;47.752;10.290;2023-03-22T02:07:38;93650.94;;;6.27;100.00
50093;BME280;35974;47.752;10.290;2023-03-22T02:10:16;93648.50;;;6.25;100.00
50093;BME280;35974;47.752;10.290;2023-03-22T02:18:58;93650.28;;;6.39;100.00
50093;BME280;35974;47.752;10.290;2023-03-22T02:24:58;93644.91;;;6.41;100.00
50093;BME280;35974;47.752;10.290;2023-03-22T02:27:49;93637.31;;;6.25;100.00
50093;BME280;35974;47.752;10.290;2023-03-22T02:33:01;93635.88;;;6.37;100.00
50093;BME280;35974;47.752;10.290;2023-03-22T02:44:26;93627.25;;;6.00;100.00
50093;BME280;35974;47.752;10.290;2023-03-22T02:50:06;93604.59;;;5.64;100.00
50093;BME280;35974;47.752;10.290;2023-03-22T02:55:50;93617.69;;;5.56;100.00
50093;BME280;35974;47.752;10.290;2023-03-22T02:58:27;93629.13;;;5.46;100.00
50093;BME280;35974;47.752;10.290;2023-03-22T03:00:56;93637.00;;;5.38;100.00
50093;BME280;35974;47.752;10.290;2023-03-22T03:03:27;93613.88;;;5.13;100.00
50093;BME280;35974;47.752;10.290;2023-03-22T03:05:59;93639.81;;;5.13;100.00
50093;BME280;35974;47.752;10.290;2023-03-22T03:08:28;93622.09;;;5.02;100.00
50093;BME280;35974;47.752;10.290;2023-03-22T03:10:55;93617.41;;;4.83;100.00
50093;BME280;35974;47.752;10.290;2023-03-22T03:13:22;93625.19;;;4.83;100.00
50093;BME280;35974;47.752;10.290;2023-03-22T03:15:55;93630.06;;;4.77;100.00
50093;BME280;35974;47.752;10.290;2023-03-22T03:22:13;93647.22;;;4.79;100.00
50093;BME280;35974;47.752;10.290;2023-03-22T03:24:56;93644.75;;;4.39;100.00
50093;BME280;35974;47.752;10.290;2023-03-22T03:27:34;93628.53;;;4.14;100.00
50093;BME280;35974;47.752;10.290;2023-03-22T03:30:11;93650.44;;;4.34;100.00
50093;BME280;35974;47.752;10.290;2023-03-22T03:32:56;93637.09;;;4.22;100.00
50093;BME280;35974;47.752;10.290;2023-03-22T03:35:31;93621.47;;;3.99;100.00
50093;BME280;35974;47.752;10.290;2023-03-22T03:38:07;93638.88;;;4.14;100.00
50093;BME280;35974;47.752;10.290;2023-03-22T03:40:40;93619.59;;;3.93;100.00
50093;BME280;35974;47.752;10.290;2023-03-22T03:43:09;93634.47;;;3.91;100.00
50093;BME280;35974;47.752;10.290;2023-03-22T03:45:36;93644.69;;;3.84;100.00
50093;BME280;35974;47.752;10.290;2023-03-22T03:48:06;93652.28;;;3.86;100.00
50093;BME280;35974;47.752;10.290;2023-03-22T03:50:40;93634.06;;;3.71;100.00
50093;BME280;35974;47.752;10.290;2023-03-22T03:53:07;93658.81;;;3.74;100.00
50093;BME280;35974;47.752;10.290;2023-03-22T03:55:34;93622.97;;;3.54;100.00
50093;BME280;35974;47.752;10.290;2023-03-22T03:58:01;93629.66;;;3.80;100.00
50093;BME280;35974;47.752;10.290;2023-03-22T04:00:27;93638.16;;;3.57;100.00
50093;BME280;35974;47.752;10.290;2023-03-22T04:02:54;93642.34;;;3.66;100.00
50093;BME280;35974;47.752;10.290;2023-03-22T04:05:25;93651.44;;;3.54;100.00
50093;BME280;35974;47.752;10.290;2023-03-22T04:07:52;93633.53;;;3.28;100.00
50093;BME280;35974;47.752;10.290;2023-03-22T04:10:18;93649.06;;;3.28;100.00
50093;BME280;35974;47.752;10.290;2023-03-22T04:12:45;93640.13;;;3.47;100.00
50093;BME280;35974;47.752;10.290;2023-03-22T04:15:11;93651.75;;;3.59;100.00
50093;BME280;35974;47.752;10.290;2023-03-22T04:17:39;93672.44;;;3.59;100.00
50093;BME280;35974;47.752;10.290;2023-03-22T04:20:06;93661.59;;;3.56;100.00
50093;BME280;35974;47.752;10.290;2023-03-22T04:22:54;93665.53;;;3.35;100.00
50093;BME280;35974;47.752;10.290;2023-03-22T04:25:20;93644.72;;;3.28;100.00
50093;BME280;35974;47.752;10.290;2023-03-22T04:27:48;93617.22;;;3.27;100.00
50093;BME280;35974;47.752;10.290;2023-03-22T04:30:16;93664.03;;;3.57;100.00
50093;BME280;35974;47.752;10.290;2023-03-22T04:32:48;93652.44;;;3.37;100.00
50093;BME280;35974;47.752;10.290;2023-03-22T04:35:15;93648.25;;;3.27;100.00
50093;BME280;35974;47.752;10.290;2023-03-22T04:37:42;93628.41;;;3.11;100.00
50093;BME280;35974;47.752;10.290;2023-03-22T04:40:09;93649.88;;;3.28;100.00
50093;BME280;35974;47.752;10.290;2023-03-22T04:42:42;93646.63;;;3.26;100.00
50093;BME280;35974;47.752;10.290;2023-03-22T04:45:10;93657.94;;;3.34;100.00
50093;BME280;35974;47.752;10.290;2023-03-22T04:47:37;93629.53;;;3.17;100.00
50093;BME280;35974;47.752;10.290;2023-03-22T04:50:05;93649.56;;;3.15;100.00
50093;BME280;35974;47.752;10.290;2023-03-22T04:52:35;93636.03;;;2.80;100.00
50093;BME280;35974;47.752;10.290;2023-03-22T04:55:01;93642.81;;;2.81;100.00
50093;BME280;35974;47.752;10.290;2023-03-22T04:57:28;93653.78;;;2.91;100.00
50093;BME280;35974;47.752;10.290;2023-03-22T04:59:54;93646.03;;;2.83;100.00
50093;BME280;35974;47.752;10.290;2023-03-22T05:02:21;93620.03;;;2.77;100.00
50093;BME280;35974;47.752;10.290;2023-03-22T05:04:47;93629.91;;;2.73;100.00
50093;BME280;35974;47.752;10.290;2023-03-22T05:07:14;93656.06;;;2.70;100.00
50093;BME280;35974;47.752;10.290;2023-03-22T05:09:51;93627.28;;;2.65;100.00
50093;BME280;35974;47.752;10.290;2023-03-22T05:12:18;93640.88;;;2.91;100.00
50093;BME280;35974;47.752;10.290;2023-03-22T05:14:45;93628.59;;;2.69;100.00
50093;BME280;35974;47.752;10.290;2023-03-22T05:17:21;93643.47;;;2.75;100.00
50093;BME280;35974;47.752;10.290;2023-03-22T05:19:51;93662.97;;;2.94;100.00
50093;BME280;35974;47.752;10.290;2023-03-22T05:22:18;93644.41;;;2.82;100.00
50093;BME280;35974;47.752;10.290;2023-03-22T05:24:47;93636.03;;;2.80;100.00
50093;BME280;35974;47.752;10.290;2023-03-22T05:27:13;93619.22;;;2.60;100.00
50093;BME280;35974;47.752;10.290;2023-03-22T05:29:40;93645.41;;;2.73;100.00
50093;BME280;35974;47.752;10.290;2023-03-22T05:32:10;93632.81;;;2.62;100.00
50093;BME280;35974;47.752;10.290;2023-03-22T05:34:37;93639.41;;;2.56;100.00
50093;BME280;35974;47.752;10.290;2023-03-22T05:37:04;93645.22;;;2.50;100.00
50093;BME280;35974;47.752;10.290;2023-03-22T05:39:30;93650.53;;;2.56;100.00
50093;BME280;35974;47.752;10.290;2023-03-22T05:41:57;93660.25;;;2.63;100.00
50093;BME280;35974;47.752;10.290;2023-03-22T05:44:30;93651.19;;;2.50;100.00
50093;BME280;35974;47.752;10.290;2023-03-22T05:46:57;93644.09;;;2.52;100.00
50093;BME280;35974;47.752;10.290;2023-03-22T05:49:31;93634.41;;;2.63;100.00
50093;BME280;35974;47.752;10.290;2023-03-22T05:51:57;93646.03;;;2.67;100.00
50093;BME280;35974;47.752;10.290;2023-03-22T05:54:24;93657.66;;;2.71;100.00
50093;BME280;35974;47.752;10.290;2023-03-22T05:56:50;93638.63;;;2.55;100.00
50093;BME280;35974;47.752;10.290;2023-03-22T05:59:19;93652.81;;;2.68;100.00
50093;BME280;35974;47.752;10.290;2023-03-22T06:01:46;93651.06;;;2.77;100.00
50093;BME280;35974;47.752;10.290;2023-03-22T06:04:14;93634.09;;;2.66;100.00
50093;BME280;35974;47.752;10.290;2023-03-22T06:06:40;93633.13;;;2.67;100.00
50093;BME280;35974;47.752;10.290;2023-03-22T06:09:07;93630.88;;;2.72;100.00
50093;BME280;35974;47.752;10.290;2023-03-22T06:11:42;93646.19;;;2.90;100.00
50093;BME280;35974;47.752;10.290;2023-03-22T06:14:14;93615.34;;;2.80;100.00
50093;BME280;35974;47.752;10.290;2023-03-22T06:16:41;93638.28;;;3.00;100.00
50093;BME280;35974;47.752;10.290;2023-03-22T06:19:08;93639.88;;;3.09;100.00
50093;BME280;35974;47.752;10.290;2023-03-22T06:21:34;93633.41;;;3.13;100.00
50093;BME280;35974;47.752;10.290;2023-03-22T06:24:00;93644.41;;;3.23;100.00
50093;BME280;35974;47.752;10.290;2023-03-22T06:26:27;93645.31;;;3.39;100.00
50093;BME280;35974;47.752;10.290;2023-03-22T06:29:09;93639.16;;;3.48;100.00
50093;BME280;35974;47.752;10.290;2023-03-22T06:31:35;93663.00;;;3.75;100.00
50093;BME280;35974;47.752;10.290;2023-03-22T06:34:02;93634.91;;;3.63;100.00
50093;BME280;35974;47.752;10.290;2023-03-22T06:36:29;93634.88;;;3.72;100.00
50093;BME280;35974;47.752;10.290;2023-03-22T06:39:05;93649.97;;;3.99;100.00
50093;BME280;35974;47.752;10.290;2023-03-22T06:41:31;93632.78;;;4.07;100.00
50093;BME280;35974;47.752;10.290;2023-03-22T06:43:58;93651.13;;;4.28;100.00
50093;BME280;35974;47.752;10.290;2023-03-22T06:46:24;93661.72;;;4.42;100.00
50093;BME280;35974;47.752;10.290;2023-03-22T06:48:51;93648.38;;;4.53;100.00
50093;BME280;35974;47.752;10.290;2023-03-22T06:51:17;93643.53;;;4.50;100.00
50093;BME280;35974;47.752;10.290;2023-03-22T06:53:44;93666.00;;;4.81;100.00
50093;BME280;35974;47.752;10.290;2023-03-22T06:56:11;93661.00;;;5.02;100.00
50093;BME280;35974;47.752;10.290;2023-03-22T06:58:37;93667.16;;;5.01;100.00
50093;BME280;35974;47.752;10.290;2023-03-22T07:01:04;93660.91;;;5.10;100.00
50093;BME280;35974;47.752;10.290;2023-03-22T07:03:30;93649.28;;;5.06;100.00
50093;BME280;35974;47.752;10.290;2023-03-22T07:06:05;93669.72;;;5.39;100.00
50093;BME280;35974;47.752;10.290;2023-03-22T07:08:34;93667.50;;;5.36;100.00
50093;BME280;35974;47.752;10.290;2023-03-22T07:11:03;93667.34;;;5.53;100.00
50093;BME280;35974;47.752;10.290;2023-03-22T07:13:30;93647.38;;;5.38;100.00
50093;BME280;35974;47.752;10.290;2023-03-22T07:15:58;93630.00;;;5.54;100.00
50093;BME280;35974;47.752;10.290;2023-03-22T07:18:25;93655.44;;;5.73;100.00
50093;BME280;35974;47.752;10.290;2023-03-22T07:20:52;93643.91;;;5.76;100.00
50093;BME280;35974;47.752;10.290;2023-03-22T07:23:19;93648.38;;;5.97;100.00
50093;BME280;35974;47.752;10.290;2023-03-22T07:25:46;93643.34;;;6.10;100.00
50093;BME280;35974;47.752;10.290;2023-03-22T07:28:13;93644.16;;;6.26;100.00
50093;BME280;35974;47.752;10.290;2023-03-22T07:30:40;93660.50;;;6.41;100.00
50093;BME280;35974;47.752;10.290;2023-03-22T07:33:09;93657.47;;;6.37;100.00
50093;BME280;35974;47.752;10.290;2023-03-22T07:35:36;93652.47;;;6.57;100.00
50093;BME280;35974;47.752;10.290;2023-03-22T07:38:04;93666.09;;;6.81;100.00
50093;BME280;35974;47.752;10.290;2023-03-22T07:40:31;93662.66;;;6.95;100.00
50093;BME280;35974;47.752;10.290;2023-03-22T07:42:58;93675.75;;;7.09;100.00
50093;BME280;35974;47.752;10.290;2023-03-22T07:45:24;93677.88;;;7.20;100.00
50093;BME280;35974;47.752;10.290;2023-03-22T07:47:51;93650.97;;;7.13;100.00
50093;BME280;35974;47.752;10.290;2023-03-22T07:50:18;93666.19;;;7.38;100.00
50093;BME280;35974;47.752;10.290;2023-03-22T07:52:44;93657.78;;;7.70;100.00
50093;BME280;35974;47.752;10.290;2023-03-22T07:55:13;93677.88;;;7.77;100.00
50093;BME280;35974;47.752;10.290;2023-03-22T07:57:39;93656.59;;;7.73;100.00
50093;BME280;35974;47.752;10.290;2023-03-22T08:00:07;93656.34;;;7.96;100.00
50093;BME280;35974;47.752;10.290;2023-03-22T08:02:37;93676.69;;;8.21;100.00
50093;BME280;35974;47.752;10.290;2023-03-22T08:05:05;93669.38;;;8.45;100.00
50093;BME280;35974;47.752;10.290;2023-03-22T08:07:32;93655.19;;;8.54;100.00
50093;BME280;35974;47.752;10.290;2023-03-22T08:09:58;93652.00;;;8.65;97.61
50093;BME280;35974;47.752;10.290;2023-03-22T08:12:25;93643.75;;;8.55;97.32
50093;BME280;35974;47.752;10.290;2023-03-22T08:14:53;93641.78;;;8.84;95.93
50093;BME280;35974;47.752;10.290;2023-03-22T08:17:19;93648.25;;;8.88;94.53
50093;BME280;35974;47.752;10.290;2023-03-22T08:19:46;93644.63;;;8.89;92.59
50093;BME280;35974;47.752;10.290;2023-03-22T08:22:12;93630.19;;;9.06;91.80
50093;BME280;35974;47.752;10.290;2023-03-22T08:24:39;93671.56;;;9.36;91.18
50093;BME280;35974;47.752;10.290;2023-03-22T08:27:05;93659.13;;;9.38;90.55
50093;BME280;35974;47.752;10.290;2023-03-22T08:29:32;93649.88;;;9.49;90.86
50093;BME280;35974;47.752;10.290;2023-03-22T08:31:59;93640.63;;;9.46;89.24
50093;BME280;35974;47.752;10.290;2023-03-22T08:34:28;93631.78;;;9.54;89.28
50093;BME280;35974;47.752;10.290;2023-03-22T08:36:54;93644.59;;;9.82;89.22
50093;BME280;35974;47.752;10.290;2023-03-22T08:39:21;93639.72;;;10.06;87.30
50093;BME280;35974;47.752;10.290;2023-03-22T08:41:53;93647.56;;;9.93;87.97
50093;BME280;35974;47.752;10.290;2023-03-22T08:44:19;93650.94;;;10.13;87.98
50093;BME280;35974;47.752;10.290;2023-03-22T08:46:45;93643.16;;;10.00;87.84
50093;BME280;35974;47.752;10.290;2023-03-22T08:49:12;93645.31;;;10.16;88.49
50093;BME280;35974;47.752;10.290;2023-03-22T08:51:40;93641.22;;;10.40;86.31
50093;BME280;35974;47.752;10.290;2023-03-22T08:54:06;93643.22;;;10.45;86.12
50093;BME280;35974;47.752;10.290;2023-03-22T08:56:32;93645.34;;;10.61;84.77
50093;BME280;35974;47.752;10.290;2023-03-22T08:59:04;93653.13;;;10.75;86.06
50093;BME280;35974;47.752;10.290;2023-03-22T09:01:31;93645.03;;;10.83;85.71
50093;BME280;35974;47.752;10.290;2023-03-22T09:03:58;93625.50;;;10.86;84.49
50093;BME280;35974;47.752;10.290;2023-03-22T09:06:25;93628.47;;;10.89;84.75
50093;BME280;35974;47.752;10.290;2023-03-22T09:08:52;93611.81;;;11.09;84.29
50093;BME280;35974;47.752;10.290;2023-03-22T09:11:19;93637.50;;;11.25;82.53
50093;BME280;35974;47.752;10.290;2023-03-22T09:13:47;93637.78;;;11.42;82.28
50093;BME280;35974;47.752;10.290;2023-03-22T09:16:13;93620.06;;;11.38;82.95
50093;BME280;35974;47.752;10.290;2023-03-22T09:18:40;93605.22;;;11.31;82.46
50093;BME280;35974;47.752;10.290;2023-03-22T09:21:07;93617.34;;;11.69;81.44
50093;BME280;35974;47.752;10.290;2023-03-22T09:23:35;93610.75;;;11.85;81.38
50093;BME280;35974;47.752;10.290;2023-03-22T09:26:05;93618.13;;;11.95;82.07
50093;BME280;35974;47.752;10.290;2023-03-22T09:28:33;93601.31;;;12.03;82.30
50093;BME280;35974;47.752;10.290;2023-03-22T09:31:03;93617.31;;;12.13;81.25
50093;BME280;35974;47.752;10.290;2023-03-22T09:33:31;93582.75;;;12.04;81.07
50093;BME280;35974;47.752;10.290;2023-03-22T09:35:58;93586.16;;;12.54;80.84
50093;BME280;35974;47.752;10.290;2023-03-22T09:38:24;93573.25;;;12.82;77.74
50093;BME280;35974;47.752;10.290;2023-03-22T09:40:55;93532.41;;;12.44;77.19
50093;BME280;35974;47.752;10.290;2023-03-22T09:43:28;93597.16;;;13.05;76.01
50093;BME280;35974;47.752;10.290;2023-03-22T09:45:58;93570.41;;;12.84;76.12
50093;BME280;35974;47.752;10.290;2023-03-22T09:48:37;93575.72;;;13.19;75.24
50093;BME280;35974;47.752;10.290;2023-03-22T09:51:06;93574.84;;;13.38;74.91
50093;BME280;35974;47.752;10.290;2023-03-22T09:53:38;93586.84;;;13.45;74.01
50093;BME280;35974;47.752;10.290;2023-03-22T09:56:20;93564.66;;;13.53;74.94
50093;BME280;35974;47.752;10.290;2023-03-22T10:02:06;93552.59;;;14.04;75.08
50093;BME280;35974;47.752;10.290;2023-03-22T10:04:49;93578.97;;;14.21;71.08
50093;BME280;35974;47.752;10.290;2023-03-22T10:07:28;93548.75;;;14.24;69.01
50093;BME280;35974;47.752;10.290;2023-03-22T10:12:29;93560.19;;;14.87;68.87
50093;BME280;35974;47.752;10.290;2023-03-22T10:15:11;93571.38;;;14.94;68.20
50093;BME280;35974;47.752;10.290;2023-03-22T10:17:42;93530.50;;;15.09;62.22
50093;BME280;35974;47.752;10.290;2023-03-22T10:22:47;93562.75;;;15.50;56.65
50093;BME280;35974;47.752;10.290;2023-03-22T10:25:20;93563.88;;;15.54;58.24
50093;BME280;35974;47.752;10.290;2023-03-22T10:27:49;93564.16;;;15.74;54.22
50093;BME280;35974;47.752;10.290;2023-03-22T10:30:24;93564.44;;;15.95;50.64
50093;BME280;35974;47.752;10.290;2023-03-22T10:32:58;93569.31;;;16.03;49.30
50093;BME280;35974;47.752;10.290;2023-03-22T10:35:26;93569.09;;;15.71;47.64
50093;BME280;35974;47.752;10.290;2023-03-22T10:37:55;93548.03;;;15.54;48.64
50093;BME280;35974;47.752;10.290;2023-03-22T10:40:32;93569.09;;;15.71;45.50
50093;BME280;35974;47.752;10.290;2023-03-22T10:43:06;93547.25;;;15.36;44.13
50093;BME280;35974;47.752;10.290;2023-03-22T10:45:35;93565.59;;;15.65;44.87
50093;BME280;35974;47.752;10.290;2023-03-22T10:48:12;93560.00;;;15.79;41.66
50093;BME280;35974;47.752;10.290;2023-03-22T10:50:44;93549.13;;;15.75;46.42
50093;BME280;35974;47.752;10.290;2023-03-22T10:53:35;93559.22;;;15.61;46.52
50093;BME280;35974;47.752;10.290;2023-03-22T10:56:04;93532.22;;;15.54;45.49
50093;BME280;35974;47.752;10.290;2023-03-22T10:58:33;93562.31;;;15.75;44.98
50093;BME280;35974;47.752;10.290;2023-03-22T11:01:13;93534.31;;;15.52;45.36
50093;BME280;35974;47.752;10.290;2023-03-22T11:03:50;93550.13;;;15.52;45.99
50093;BME280;35974;47.752;10.290;2023-03-22T11:06:19;93532.34;;;15.64;45.78
50093;BME280;35974;47.752;10.290;2023-03-22T11:11:49;93538.91;;;15.79;47.95
50093;BME280;35974;47.752;10.290;2023-03-22T11:14:29;93551.63;;;15.82;47.35
50093;BME280;35974;47.752;10.290;2023-03-22T11:17:06;93520.09;;;15.36;48.13
50093;BME280;35974;47.752;10.290;2023-03-22T11:19:41;93524.38;;;15.59;47.21
50093;BME280;35974;47.752;10.290;2023-03-22T11:22:23;93516.41;;;15.54;46.02
50093;BME280;35974;47.752;10.290;2023-03-22T11:24:51;93548.97;;;15.82;45.30
50093;BME280;35974;47.752;10.290;2023-03-22T11:27:29;93540.16;;;15.93;45.88
50093;BME280;35974;47.752;10.290;2023-03-22T11:35:37;93513.91;;;15.64;45.45
50093;BME280;35974;47.752;10.290;2023-03-22T11:38:05;93516.34;;;15.71;45.08
50093;BME280;35974;47.752;10.290;2023-03-22T11:40:34;93535.63;;;15.71;42.95
50093;BME280;35974;47.752;10.290;2023-03-22T11:43:26;93533.63;;;15.79;41.36
50093;BME280;35974;47.752;10.290;2023-03-22T11:46:06;93505.97;;;15.64;43.60
50093;BME280;35974;47.752;10.290;2023-03-22T11:48:35;93528.00;;;15.92;44.05
50093;BME280;35974;47.752;10.290;2023-03-22T11:51:15;93514.91;;;16.24;42.69
50093;BME280;35974;47.752;10.290;2023-03-22T11:53:46;93502.72;;;15.96;40.21
50093;BME280;35974;47.752;10.290;2023-03-22T11:56:20;93505.50;;;15.84;40.60
50093;BME280;35974;47.752;10.290;2023-03-22T12:04:03;93515.44;;;16.48;43.73
50093;BME280;35974;47.752;10.290;2023-03-22T12:06:33;93475.78;;;16.43;42.20
50093;BME280;35974;47.752;10.290;2023-03-22T12:09:24;93495.63;;;16.46;40.04
50093;BME280;35974;47.752;10.290;2023-03-22T12:11:56;93476.19;;;16.30;41.24
50093;BME280;35974;47.752;10.290;2023-03-22T12:14:27;93484.63;;;16.32;41.68
50093;BME280;35974;47.752;10.290;2023-03-22T12:20:11;93470.50;;;16.43;40.87
50093;BME280;35974;47.752;10.290;2023-03-22T12:22:46;93474.56;;;16.83;42.17
50093;BME280;35974;47.752;10.290;2023-03-22T12:25:19;93472.59;;;16.69;42.53
50093;BME280;35974;47.752;10.290;2023-03-22T12:27:50;93475.75;;;16.98;40.57
50093;BME280;35974;47.752;10.290;2023-03-22T12:30:29;93467.66;;;16.82;39.94
50093;BME280;35974;47.752;10.290;2023-03-22T12:33:04;93468.09;;;16.69;41.66
50093;BME280;35974;47.752;10.290;2023-03-22T12:35:34;93430.94;;;16.48;41.44
50093;BME280;35974;47.752;10.290;2023-03-22T12:38:12;93435.22;;;16.55;39.05
50093;BME280;35974;47.752;10.290;2023-03-22T12:40:42;93447.38;;;16.56;41.08
50093;BME280;35974;47.752;10.290;2023-03-22T12:43:16;93456.75;;;16.41;39.70
50093;BME280;35974;47.752;10.290;2023-03-22T12:45:54;93424.00;;;15.88;40.14
50093;BME280;35974;47.752;10.290;2023-03-22T12:48:42;93429.97;;;16.33;40.49
50093;BME280;35974;47.752;10.290;2023-03-22T12:51:13;93444.09;;;16.43;42.46
50093;BME280;35974;47.752;10.290;2023-03-22T12:53:44;93451.13;;;16.65;41.55
50093;BME280;35974;47.752;10.290;2023-03-22T12:56:15;93456.75;;;16.41;39.47
50093;BME280;35974;47.752;10.290;2023-03-22T12:58:49;93439.22;;;16.30;43.08
50093;BME280;35974;47.752;10.290;2023-03-22T13:01:27;93453.72;;;16.87;42.00
50093;BME280;35974;47.752;10.290;2023-03-22T13:03:55;93442.63;;;16.58;41.53
50093;BME280;35974;47.752;10.290;2023-03-22T13:09:12;93424.94;;;16.31;42.36
50093;BME280;35974;47.752;10.290;2023-03-22T13:11:43;93449.78;;;16.57;44.68
50093;BME280;35974;47.752;10.290;2023-03-22T13:14:52;93439.47;;;16.88;42.49
50093;BME280;35974;47.752;10.290;2023-03-22T13:16:59;93403.84;;;16.31;38.77
50093;BME280;35974;47.752;10.290;2023-03-22T13:19:33;93442.84;;;16.24;39.77
50093;BME280;35974;47.752;10.290;2023-03-22T13:22:18;93433.03;;;16.19;41.34
50093;BME280;35974;47.752;10.290;2023-03-22T13:27:55;93429.22;;;16.64;40.82
50093;BME280;35974;47.752;10.290;2023-03-22T13:30:29;93419.13;;;16.89;39.90
50093;BME280;35974;47.752;10.290;2023-03-22T13:33:01;93411.53;;;17.02;42.12
50093;BME280;35974;47.752;10.290;2023-03-22T13:35:43;93419.69;;;16.96;40.61
50093;BME280;35974;47.752;10.290;2023-03-22T13:38:23;93388.66;;;17.24;40.01
50093;BME280;35974;47.752;10.290;2023-03-22T13:40:57;93384.34;;;17.07;40.04
50093;BME280;35974;47.752;10.290;2023-03-22T13:43:47;93410.94;;;17.38;39.11
50093;BME280;35974;47.752;10.290;2023-03-22T13:54:01;93409.94;;;16.96;39.52
50093;BME280;35974;47.752;10.290;2023-03-22T13:56:56;93398.06;;;17.04;40.77
50093;BME280;35974;47.752;10.290;2023-03-22T13:59:32;93398.72;;;16.84;39.99
50093;BME280;35974;47.752;10.290;2023-03-22T14:02:37;93380.22;;;16.84;39.23
50093;BME280;35974;47.752;10.290;2023-03-22T14:05:14;93386.28;;;16.84;40.19
50093;BME280;35974;47.752;10.290;2023-03-22T14:07:45;93400.91;;;16.60;40.02
50093;BME280;35974;47.752;10.290;2023-03-22T14:10:17;93380.03;;;16.26;40.58
50093;BME280;35974;47.752;10.290;2023-03-22T14:15:40;93398.31;;;17.02;40.46
50093;BME280;35974;47.752;10.290;2023-03-22T14:18:17;93394.06;;;17.49;38.89
50093;BME280;35974;47.752;10.290;2023-03-22T14:21:04;93390.78;;;17.22;39.77
50093;BME280;35974;47.752;10.290;2023-03-22T14:23:35;93379.41;;;17.21;40.71